Historique des mesures à Cassis (13260), France
Quotidien Résumé Avril 28, 2018 Unités:  Métrique    US   Métrique/US
« Précédent (Jour)
Suivant (Jour) »
Quotidien Hebdomadaire Mensuel Annuel Période au choix
  Maximum: Minimum: Moyenne:
Température: TemperatureC °C 14.2 °C 17.7 °C
Point de rosée: DewpointC °C 10.8 °C 13.1 °C
Humidité: Humidity % 66 % 71 %
Vitesse du vent: 0 km/h 0 km/h 2.9 km/h
Rafales: 0 km/h - -
Vent:- - SSW
Pression: PressurehPa hPa 1007.3 hPa -
Précipitations: 0.0 mm    
Historical Graphs
 
 
Mesures pour : Avril 28, 2018
Heure Temperature Point de rosée Pression Vent Vitesse du vent Rafales Humidité Pluie (par heure) Conditions
TemperatureC °C DewpointC °C PressurehPa hPa Calm     Humidity % HourlyPrecipMM mm SoftwareType W/m2
00:12 16.9 °C 13.0 °C 1008.7 hPa NW 4.2 km/h 9.8 km/h 78 % 0.0 mm open2300-1.11 W/m2
01:11 16.8 °C 13.1 °C 1008.4 hPa West 6.4 km/h 6.4 km/h 79 % 0.0 mm open2300-1.11 W/m2
02:11 16.5 °C 12.8 °C 1008.4 hPa Calm   4.7 km/h 79 % 0.0 mm open2300-1.11 W/m2
03:11 16.2 °C 12.6 °C 1008.0 hPa Calm     79 % 0.0 mm open2300-1.11 W/m2
04:12 15.4 °C 11.8 °C 1008.0 hPa Calm     79 % 0.0 mm open2300-1.11 W/m2
05:11 14.8 °C 11.4 °C 1007.7 hPa Calm   1.8 km/h 80 % 0.0 mm open2300-1.11 W/m2
06:10 14.3 °C 10.9 °C 1007.3 hPa Calm     80 % 0.0 mm open2300-1.11 W/m2
07:10 14.2 °C 10.8 °C 1007.7 hPa Calm     80 % 0.0 mm open2300-1.11 W/m2
08:10 16.7 °C 12.6 °C 1008.0 hPa Calm   8.9 km/h 77 % 0.0 mm open2300-1.11 W/m2
09:10 17.1 °C 13.2 °C 1008.7 hPa Calm   7.6 km/h 78 % 0.0 mm open2300-1.11 W/m2
10:10 18.1 °C 14.2 °C 1009.0 hPa South 8 km/h 8 km/h 78 % 0.0 mm open2300-1.11 W/m2
11:10 19.4 °C 15.1 °C 1009.4 hPa SSW 9.3 km/h 9.3 km/h 76 % 0.0 mm open2300-1.11 W/m2
12:10 20.9 °C 15.8 °C 1009.4 hPa Calm   15 km/h 73 % 0.0 mm open2300-1.11 W/m2
13:10 21.8 °C 16.3 °C 1009.0 hPa SSW 6.9 km/h 9.8 km/h 71 % 0.0 mm open2300-1.11 W/m2
14:10 22.5 °C 16.6 °C 1009.0 hPa Calm   16.9 km/h 69 % 0.0 mm open2300-1.11 W/m2
15:10 22.6 °C 16.2 °C 1008.7 hPa SSW 8.9 km/h 9.3 km/h 67 % 0.0 mm open2300-1.11 W/m2
16:12 22.2 °C 15.6 °C 1008.4 hPa South 17.4 km/h 17.4 km/h 66 % 0.0 mm open2300-1.11 W/m2
17:12 21.6 °C 14.9 °C 1007.7 hPa SSW 6.4 km/h 10.3 km/h 66 % 0.0 mm open2300-1.11 W/m2
18:11 20.9 °C 14.5 °C 1007.3 hPa Calm   4.2 km/h 67 % 0.0 mm open2300-1.11 W/m2
19:11 19.9 °C 14.1 °C 1007.3 hPa Calm   5.1 km/h 69 % 0.0 mm open2300-1.11 W/m2
20:12 18.9 °C 13.1 °C 1007.3 hPa Calm   1.8 km/h 69 % 0.0 mm open2300-1.11 W/m2
21:11 18.2 °C 13.3 °C 1007.7 hPa Calm     73 % 0.0 mm open2300-1.11 W/m2
22:11 17.9 °C 13.4 °C 1007.7 hPa Calm   5.6 km/h 75 % 0.0 mm open2300-1.11 W/m2
23:11 17.6 °C 13.3 °C 1008.0 hPa ENE 4.7 km/h 4.7 km/h 76 % 0.0 mm open2300-1.11 W/m2
Observations météo à CASSIS
WU-History script by Weather Underground - 1 mb